Time;durP1;ratioP1;P1;durP2;ratioP2;P2;SDS_P1;SDS_P2;PMS_P1;PMS_P2;Temp;Humidity;BMP_temperature;BMP_pressure;BME280_temperature;BME280_humidity;BME280_pressure;Samples;Min_cycle;Max_cycle;Signal;HPM_P1;HPM_P2
2023/05/08 00:00:03;;;;;;;7.90;7.20;;;8.80;1.00;;;;;;4986474;28;20558;-80
2023/05/08 00:02:30;;;;;;;7.57;6.97;;;8.80;1.00;;;;;;4981935;28;20468;-80
2023/05/08 00:04:57;;;;;;;7.13;6.63;;;8.70;1.00;;;;;;4986565;28;21268;-80
2023/05/08 00:07:24;;;;;;;7.47;6.87;;;8.60;1.00;;;;;;4982788;28;20913;-81
2023/05/08 00:09:51;;;;;;;7.20;6.50;;;8.60;1.00;;;;;;4987770;28;21255;-80
2023/05/08 00:12:18;;;;;;;7.67;7.00;;;8.60;1.00;;;;;;4984513;28;20338;-80
2023/05/08 00:14:45;;;;;;;8.47;7.77;;;8.60;1.00;;;;;;4987395;28;21238;-81
2023/05/08 00:17:13;;;;;;;8.17;7.50;;;8.60;1.00;;;;;;4986320;28;21104;-80
2023/05/08 00:19:40;;;;;;;7.57;6.97;;;8.50;1.00;;;;;;4985816;28;21500;-81
2023/05/08 00:22:07;;;;;;;7.07;6.57;;;8.50;1.00;;;;;;4979708;28;20459;-79
2023/05/08 00:24:34;;;;;;;9.30;8.27;;;8.50;1.00;;;;;;4983880;28;20467;-80
2023/05/08 00:27:01;;;;;;;11.70;8.80;;;8.50;1.00;;;;;;4984804;28;20475;-79
2023/05/08 00:29:28;;;;;;;8.50;7.80;;;8.50;1.00;;;;;;4982679;28;20546;-80
2023/05/08 00:31:55;;;;;;;8.70;7.90;;;8.40;1.00;;;;;;4985402;28;20490;-80
2023/05/08 00:34:26;;;;;;;8.07;7.37;;;8.40;1.00;;;;;;4986540;28;20522;-80
2023/05/08 00:36:53;;;;;;;8.40;7.70;;;8.30;1.00;;;;;;4988918;28;20522;-81
2023/05/08 00:39:20;;;;;;;8.00;7.23;;;8.30;1.00;;;;;;4990633;28;20436;-80
2023/05/08 00:41:47;;;;;;;8.33;7.63;;;8.20;1.00;;;;;;4981479;28;20467;-80
2023/05/08 00:44:15;;;;;;;9.07;8.27;;;8.20;1.00;;;;;;4989189;28;20463;-81
2023/05/08 00:46:44;;;;;;;9.07;8.37;;;8.10;1.00;;;;;;4980636;28;20498;-81
2023/05/08 00:49:13;;;;;;;8.03;7.43;;;8.10;1.00;;;;;;4983814;28;20531;-80
2023/05/08 00:51:43;;;;;;;8.43;7.73;;;8.00;1.00;;;;;;4982537;28;20554;-79
2023/05/08 00:54:13;;;;;;;8.13;7.57;;;8.00;1.00;;;;;;4984862;28;21247;-80
2023/05/08 00:56:41;;;;;;;8.37;7.67;;;8.00;1.00;;;;;;4979976;28;20476;-81
2023/05/08 00:59:11;;;;;;;8.10;7.40;;;7.90;1.00;;;;;;4981788;28;20499;-81
2023/05/08 01:01:39;;;;;;;8.53;7.93;;;7.90;1.00;;;;;;4984546;28;20563;-81
2023/05/08 01:04:06;;;;;;;8.33;7.63;;;7.90;1.00;;;;;;5009354;23;20550;-76
2023/05/08 01:06:35;;;;;;;8.00;7.40;;;7.80;1.00;;;;;;4997890;28;20533;-76
2023/05/08 01:09:04;;;;;;;8.60;7.90;;;7.90;1.00;;;;;;4990321;28;20573;-77
2023/05/08 01:11:40;;;;;;;8.90;8.13;;;7.80;1.00;;;;;;4993480;28;20509;-76
2023/05/08 01:14:16;;;;;;;8.90;8.20;;;7.80;1.00;;;;;;4996538;28;20480;-76
2023/05/08 01:16:53;;;;;;;8.93;8.13;;;7.80;1.00;;;;;;4994901;28;20473;-76
2023/05/08 01:19:40;;;;;;;8.90;8.20;;;7.80;1.00;;;;;;4997271;28;20479;-76
2023/05/08 01:22:18;;;;;;;10.70;7.67;;;7.80;1.00;;;;;;4993232;28;20493;-77
2023/05/08 01:25:23;;;;;;;8.07;7.27;;;7.80;1.00;;;;;;4993714;28;20465;-76
2023/05/08 01:28:21;;;;;;;7.93;7.13;;;7.80;1.00;;;;;;4991982;28;20481;-76
2023/05/08 01:31:02;;;;;;;8.20;7.40;;;7.80;1.00;;;;;;4992244;28;20437;-76
2023/05/08 01:33:35;;;;;;;8.20;7.60;;;7.80;1.00;;;;;;4990778;28;20463;-76
2023/05/08 01:36:17;;;;;;;7.90;7.20;;;7.70;1.00;;;;;;4994036;28;20542;-76
2023/05/08 01:38:55;;;;;;;8.10;7.40;;;7.70;1.00;;;;;;4990015;28;20559;-74
2023/05/08 01:41:27;;;;;;;8.67;7.87;;;7.70;1.00;;;;;;4995563;28;20549;-76
2023/05/08 01:44:06;;;;;;;8.57;7.77;;;7.70;1.00;;;;;;4989131;28;20463;-75
2023/05/08 01:46:33;;;;;;;7.93;7.23;;;7.70;1.00;;;;;;4992539;28;20581;-75
2023/05/08 01:49:08;;;;;;;7.80;7.20;;;7.60;1.00;;;;;;4993520;28;20977;-75
2023/05/08 01:51:42;;;;;;;8.87;8.07;;;7.60;1.00;;;;;;4990897;28;21305;-75
2023/05/08 01:54:14;;;;;;;8.33;7.60;;;7.50;1.00;;;;;;4996589;28;21069;-75
2023/05/08 01:56:46;;;;;;;8.10;7.30;;;7.50;1.00;;;;;;4996368;28;20515;-75
2023/05/08 01:59:16;;;;;;;9.10;7.97;;;7.50;1.00;;;;;;5000642;28;20590;-74
2023/05/08 02:01:46;;;;;;;9.80;8.90;;;7.40;1.00;;;;;;4995982;28;20455;-76
2023/05/08 02:04:15;;;;;;;9.50;8.70;;;7.40;1.00;;;;;;4996092;28;20995;-75
2023/05/08 02:06:43;;;;;;;7.83;7.13;;;7.40;1.00;;;;;;4999848;28;20971;-75
2023/05/08 02:09:11;;;;;;;10.70;9.63;;;7.40;1.00;;;;;;4995846;28;20492;-75
2023/05/08 02:11:42;;;;;;;8.70;8.00;;;7.40;1.00;;;;;;4995489;28;20485;-75
2023/05/08 02:14:10;;;;;;;7.73;7.03;;;7.40;1.00;;;;;;4997088;28;20458;-75
2023/05/08 02:16:38;;;;;;;8.43;7.73;;;7.40;1.00;;;;;;4997827;28;20514;-75
2023/05/08 02:19:08;;;;;;;8.63;7.93;;;7.30;1.00;;;;;;4995966;28;20627;-75
2023/05/08 02:21:39;;;;;;;8.60;7.83;;;7.30;1.00;;;;;;4976718;28;20793;-75
2023/05/08 02:24:07;;;;;;;9.93;8.97;;;7.30;1.00;;;;;;4996127;28;21053;-75
2023/05/08 02:26:35;;;;;;;9.00;8.10;;;7.20;1.00;;;;;;4995378;28;21054;-75
2023/05/08 02:29:05;;;;;;;9.10;8.20;;;7.20;1.00;;;;;;4994556;28;20473;-75
2023/05/08 02:31:32;;;;;;;9.77;8.83;;;7.20;1.00;;;;;;4990632;28;20564;-75
2023/05/08 02:34:00;;;;;;;8.80;8.00;;;7.20;1.00;;;;;;4992236;28;20477;-75
2023/05/08 02:36:29;;;;;;;11.33;8.10;;;7.10;1.00;;;;;;4995959;28;20527;-75
2023/05/08 02:39:00;;;;;;;8.20;7.50;;;7.10;1.00;;;;;;5002064;28;20480;-75
2023/05/08 02:41:32;;;;;;;9.30;8.45;;;7.00;1.00;;;;;;4995398;28;20246;-75
2023/05/08 02:43:59;;;;;;;8.23;7.53;;;7.00;1.00;;;;;;4995235;28;20690;-75
2023/05/08 02:46:31;;;;;;;9.25;8.35;;;7.00;1.00;;;;;;5001790;28;20844;-79
2023/05/08 02:49:03;;;;;;;9.50;8.53;;;6.90;1.00;;;;;;4997126;28;20258;-78
2023/05/08 02:51:39;;;;;;;8.15;7.50;;;6.90;1.00;;;;;;5000132;28;20473;-81
2023/05/08 02:54:10;;;;;;;18.80;16.17;;;6.80;1.00;;;;;;5002153;28;20245;-78
2023/05/08 02:56:44;;;;;;;9.30;8.40;;;6.70;1.00;;;;;;4997028;28;20248;-77
2023/05/08 02:59:17;;;;;;;9.73;8.93;;;6.70;1.00;;;;;;4996372;28;20468;-83
2023/05/08 03:01:51;;;;;;;8.55;7.85;;;6.70;1.00;;;;;;5001211;28;20381;-80
2023/05/08 03:04:26;;;;;;;10.20;9.18;;;6.70;1.00;;;;;;5000496;28;20240;-79
2023/05/08 03:06:56;;;;;;;9.50;8.60;;;6.60;1.00;;;;;;4999536;28;20236;-77
2023/05/08 03:09:31;;;;;;;9.30;8.50;;;6.60;1.00;;;;;;4998881;28;20981;-78
2023/05/08 03:12:03;;;;;;;8.55;7.80;;;6.60;1.00;;;;;;5001347;28;20323;-78
2023/05/08 03:14:34;;;;;;;12.05;8.40;;;6.60;1.00;;;;;;5002860;28;20236;-78
2023/05/08 03:17:04;;;;;;;9.88;8.98;;;6.50;1.00;;;;;;5003146;28;20246;-77
2023/05/08 03:19:36;;;;;;;8.70;8.00;;;6.50;1.00;;;;;;5003836;28;20267;-79
2023/05/08 03:22:05;;;;;;;9.40;8.60;;;6.60;1.00;;;;;;4997694;28;20364;-78
2023/05/08 03:24:35;;;;;;;9.73;8.73;;;6.50;1.00;;;;;;5000492;28;20333;-77
2023/05/08 03:27:04;;;;;;;9.40;8.60;;;6.50;1.00;;;;;;5001209;28;20264;-78
2023/05/08 03:29:34;;;;;;;10.95;9.88;;;6.50;1.00;;;;;;4997651;28;21079;-78
2023/05/08 03:32:02;;;;;;;8.73;7.88;;;6.50;1.00;;;;;;5001993;28;20329;-78
2023/05/08 03:34:31;;;;;;;9.73;8.82;;;6.50;1.00;;;;;;4998784;28;20320;-80
2023/05/08 03:36:58;;;;;;;11.23;9.55;;;6.50;1.00;;;;;;5002712;28;20250;-80
2023/05/08 03:39:25;;;;;;;9.75;8.88;;;6.50;1.00;;;;;;5001261;28;20298;-79
2023/05/08 03:41:55;;;;;;;12.52;11.32;;;6.40;1.00;;;;;;4999786;28;20321;-81
2023/05/08 03:44:23;;;;;;;10.57;9.68;;;6.40;1.00;;;;;;4998996;28;20247;-80
2023/05/08 03:46:52;;;;;;;9.73;8.93;;;6.50;1.00;;;;;;5002491;28;20310;-80
2023/05/08 03:49:23;;;;;;;10.50;9.40;;;6.50;1.00;;;;;;5000908;28;20240;-81
2023/05/08 03:51:50;;;;;;;12.15;9.00;;;6.50;1.00;;;;;;4999848;28;20308;-80
2023/05/08 03:54:17;;;;;;;11.38;10.32;;;6.50;1.00;;;;;;4998841;28;20789;-80
2023/05/08 03:56:46;;;;;;;11.20;10.15;;;6.50;1.00;;;;;;5003752;28;20238;-81
2023/05/08 03:59:21;;;;;;;10.37;9.40;;;6.50;1.00;;;;;;5003977;28;20300;-80
2023/05/08 04:01:55;;;;;;;9.90;9.00;;;6.60;1.00;;;;;;5002942;28;20501;-80
2023/05/08 04:04:30;;;;;;;11.20;10.27;;;6.50;1.00;;;;;;4998191;28;20233;-82
2023/05/08 04:07:07;;;;;;;12.80;9.07;;;6.60;1.00;;;;;;5000141;28;20315;-81
2023/05/08 04:09:38;;;;;;;10.00;9.03;;;6.70;1.00;;;;;;4999940;28;20477;-81
2023/05/08 04:12:13;;;;;;;9.38;8.57;;;6.70;1.00;;;;;;5000896;28;20512;-81
2023/05/08 04:14:45;;;;;;;10.65;9.50;;;6.60;1.00;;;;;;4999990;28;20986;-81
2023/05/08 04:17:17;;;;;;;11.20;9.93;;;6.60;1.00;;;;;;5001523;28;20242;-81
2023/05/08 04:19:47;;;;;;;9.77;8.88;;;6.50;1.00;;;;;;5004925;28;20248;-81
2023/05/08 04:22:18;;;;;;;10.52;9.63;;;6.60;1.00;;;;;;5006355;28;20251;-79
2023/05/08 04:24:48;;;;;;;10.52;9.43;;;6.60;1.00;;;;;;5002492;28;21052;-80
2023/05/08 04:27:16;;;;;;;11.20;10.20;;;6.60;1.00;;;;;;5007517;28;20989;-80
2023/05/08 04:29:45;;;;;;;12.30;11.10;;;6.70;1.00;;;;;;5003970;28;20241;-81
2023/05/08 04:32:12;;;;;;;10.80;9.40;;;6.70;1.00;;;;;;5002863;28;20280;-80
2023/05/08 04:34:40;;;;;;;13.00;10.50;;;6.80;1.00;;;;;;5003166;28;20469;-79
2023/05/08 04:37:07;;;;;;;13.23;10.25;;;6.90;1.00;;;;;;5002521;28;21269;-80
2023/05/08 04:39:34;;;;;;;11.20;10.20;;;6.80;1.00;;;;;;5002412;28;20331;-80
2023/05/08 04:42:02;;;;;;;9.93;9.05;;;6.90;1.00;;;;;;5002441;28;20421;-79
2023/05/08 04:44:29;;;;;;;11.57;10.47;;;6.90;1.00;;;;;;5006741;28;20240;-80
2023/05/08 04:46:57;;;;;;;12.10;10.43;;;6.90;1.00;;;;;;4999172;28;20455;-80
2023/05/08 04:49:24;;;;;;;9.68;8.80;;;6.90;1.00;;;;;;4996140;28;20245;-79
2023/05/08 04:51:51;;;;;;;10.13;9.00;;;6.90;1.00;;;;;;4997223;28;20249;-80
2023/05/08 04:54:18;;;;;;;9.97;9.10;;;6.90;1.00;;;;;;5002032;28;20238;-80
2023/05/08 04:56:45;;;;;;;36.87;16.93;;;7.00;1.00;;;;;;4999061;28;21383;-80
2023/05/08 04:59:12;;;;;;;11.87;10.17;;;7.10;1.00;;;;;;5002102;28;20965;-80
2023/05/08 05:01:39;;;;;;;9.93;9.05;;;7.10;1.00;;;;;;5002961;28;20458;-81
2023/05/08 05:04:07;;;;;;;9.70;8.80;;;7.10;1.00;;;;;;4998401;28;20246;-80
2023/05/08 05:06:34;;;;;;;10.80;9.32;;;7.20;1.00;;;;;;4997351;28;20394;-81
2023/05/08 05:09:02;;;;;;;10.57;8.88;;;7.30;1.00;;;;;;4995317;28;20270;-81
2023/05/08 05:11:32;;;;;;;9.18;8.32;;;7.40;1.00;;;;;;4999767;28;20231;-80
2023/05/08 05:13:59;;;;;;;9.30;8.50;;;7.40;1.00;;;;;;5001648;28;20344;-80
2023/05/08 05:16:26;;;;;;;10.83;9.47;;;7.50;1.00;;;;;;5001098;28;20471;-79
2023/05/08 05:18:53;;;;;;;8.87;8.07;;;7.50;1.00;;;;;;5001429;28;20482;-82
2023/05/08 05:21:24;;;;;;;9.60;8.90;;;7.70;1.00;;;;;;5005075;28;20585;-79
2023/05/08 05:23:52;;;;;;;12.18;8.73;;;7.70;1.00;;;;;;5006020;28;21069;-80
2023/05/08 05:26:19;;;;;;;9.73;8.83;;;7.80;1.00;;;;;;5004915;28;20792;-79
2023/05/08 05:28:45;;;;;;;8.30;7.50;;;7.90;1.00;;;;;;5010571;28;20467;-79
2023/05/08 05:31:12;;;;;;;9.53;8.60;;;7.90;1.00;;;;;;5009622;28;20445;-80
2023/05/08 05:33:41;;;;;;;7.60;6.87;;;8.10;1.00;;;;;;5003531;28;20525;-79
2023/05/08 05:36:08;;;;;;;8.00;7.20;;;8.20;1.00;;;;;;5006449;28;20447;-80
2023/05/08 05:38:37;;;;;;;8.10;7.30;;;8.30;1.00;;;;;;5010814;28;20478;-80
2023/05/08 05:41:04;;;;;;;8.90;8.10;;;8.50;1.00;;;;;;5002376;28;20466;-79
2023/05/08 05:43:30;;;;;;;7.93;7.33;;;8.60;1.00;;;;;;4999432;28;20454;-79
2023/05/08 05:46:05;;;;;;;8.00;6.50;;;8.80;1.00;;;;;;4999578;28;20551;-80
2023/05/08 05:48:32;;;;;;;7.73;6.80;;;8.70;1.00;;;;;;4999584;28;20470;-80
2023/05/08 05:50:59;;;;;;;11.00;8.20;;;8.90;1.00;;;;;;5007389;28;20540;-81
2023/05/08 05:53:26;;;;;;;6.70;6.03;;;9.00;1.00;;;;;;5004768;28;20423;-79
2023/05/08 05:55:54;;;;;;;7.03;5.97;;;9.10;1.00;;;;;;5004120;28;20516;-78
2023/05/08 05:58:21;;;;;;;8.00;6.50;;;9.20;1.00;;;;;;4999104;28;20434;-80
2023/05/08 06:00:48;;;;;;;6.90;6.30;;;9.30;1.00;;;;;;5002580;28;20463;-80
2023/05/08 06:03:15;;;;;;;7.83;6.03;;;9.40;1.00;;;;;;5008352;28;20459;-80
2023/05/08 06:05:42;;;;;;;6.90;6.30;;;9.40;1.00;;;;;;5000928;28;20420;-78
2023/05/08 06:08:10;;;;;;;7.07;5.90;;;9.40;1.00;;;;;;5002492;28;20475;-79
2023/05/08 06:10:37;;;;;;;6.87;6.17;;;9.30;1.00;;;;;;4991474;28;20459;-80
2023/05/08 06:13:05;;;;;;;6.17;5.57;;;9.30;1.00;;;;;;5003427;28;20491;-80
2023/05/08 06:15:32;;;;;;;6.60;5.90;;;9.40;1.00;;;;;;5000180;28;20439;-81
2023/05/08 06:17:59;;;;;;;6.00;5.50;;;9.40;1.00;;;;;;5003065;28;20482;-80
2023/05/08 06:20:28;;;;;;;5.40;4.80;;;9.40;1.00;;;;;;5003115;28;20473;-79
2023/05/08 06:22:55;;;;;;;7.30;5.80;;;9.70;1.00;;;;;;5012515;28;20477;-81
2023/05/08 06:25:22;;;;;;;5.83;5.30;;;9.70;1.00;;;;;;5004812;28;20422;-81
2023/05/08 06:27:49;;;;;;;5.67;4.87;;;9.80;1.00;;;;;;5015488;28;20443;-80
2023/05/08 06:30:18;;;;;;;5.53;5.03;;;9.70;1.00;;;;;;5010687;28;20578;-80
2023/05/08 06:32:45;;;;;;;5.23;4.80;;;9.70;1.00;;;;;;5010474;28;20428;-80
2023/05/08 06:35:17;;;;;;;6.77;5.80;;;9.60;1.00;;;;;;5010191;28;20511;-80
2023/05/08 06:37:44;;;;;;;4.77;4.37;;;9.70;1.00;;;;;;5012647;28;20501;-80
2023/05/08 06:40:12;;;;;;;4.90;4.50;;;9.70;1.00;;;;;;5008559;28;20527;-80
2023/05/08 06:42:40;;;;;;;5.10;4.67;;;9.90;1.00;;;;;;5006301;28;20431;-79
2023/05/08 06:45:08;;;;;;;5.03;4.63;;;9.90;1.00;;;;;;5005996;28;20528;-80
2023/05/08 06:47:36;;;;;;;6.00;5.40;;;9.90;1.00;;;;;;5003316;28;20560;-80
2023/05/08 06:50:04;;;;;;;5.50;5.00;;;10.00;1.00;;;;;;5003860;28;20458;-80
2023/05/08 06:52:31;;;;;;;6.00;5.33;;;10.10;1.00;;;;;;5002340;28;20452;-80
2023/05/08 06:55:01;;;;;;;5.73;4.20;;;10.30;1.00;;;;;;5010850;28;20462;-79
2023/05/08 06:57:29;;;;;;;5.90;5.40;;;10.40;1.00;;;;;;5010841;28;20477;-79
2023/05/08 06:59:56;;;;;;;4.90;4.50;;;10.40;1.00;;;;;;5012602;28;20453;-79
2023/05/08 07:02:23;;;;;;;4.90;4.50;;;10.40;1.00;;;;;;4997899;28;20463;-80
2023/05/08 07:04:51;;;;;;;4.77;4.37;;;10.50;1.00;;;;;;4995266;28;20451;-81
2023/05/08 07:07:19;;;;;;;5.30;4.80;;;10.60;1.00;;;;;;4997810;28;20455;-80
2023/05/08 07:09:45;;;;;;;5.47;4.97;;;10.80;1.00;;;;;;5001759;28;20544;-81
2023/05/08 07:12:15;;;;;;;8.10;4.43;;;11.00;1.00;;;;;;5005946;28;20469;-79
2023/05/08 07:14:42;;;;;;;5.50;5.00;;;11.00;1.00;;;;;;5002222;28;20455;-80
2023/05/08 07:17:09;;;;;;;4.93;4.53;;;11.00;1.00;;;;;;5005283;28;20506;-78
2023/05/08 07:19:38;;;;;;;4.80;4.40;;;11.20;1.00;;;;;;5003508;28;20432;-78
2023/05/08 07:22:06;;;;;;;4.20;3.90;;;11.00;1.00;;;;;;5004595;28;20443;-79
2023/05/08 07:24:33;;;;;;;5.00;4.40;;;11.10;1.00;;;;;;5000102;28;20435;-81
2023/05/08 07:27:03;;;;;;;4.40;3.73;;;11.20;1.00;;;;;;5004648;28;20506;-82
2023/05/08 07:29:30;;;;;;;4.43;3.67;;;11.40;1.00;;;;;;4992897;28;20467;-80
2023/05/08 07:31:57;;;;;;;3.93;3.63;;;11.60;1.00;;;;;;4997176;28;21269;-80
2023/05/08 07:34:24;;;;;;;4.53;4.13;;;11.70;1.00;;;;;;4999928;28;20538;-80
2023/05/08 07:36:54;;;;;;;5.47;4.20;;;11.90;1.00;;;;;;5000658;28;21201;-80
2023/05/08 07:39:22;;;;;;;5.40;4.33;;;11.90;1.00;;;;;;5000772;28;20493;-79
2023/05/08 07:41:49;;;;;;;3.97;3.60;;;11.90;1.00;;;;;;4996701;28;20672;-79
2023/05/08 07:44:17;;;;;;;4.13;3.83;;;12.00;1.00;;;;;;4996358;28;20554;-81
2023/05/08 07:46:44;;;;;;;5.80;4.53;;;12.20;1.00;;;;;;5001382;28;20483;-80
2023/05/08 07:49:11;;;;;;;4.50;4.07;;;12.40;1.00;;;;;;4996649;28;20504;-79
2023/05/08 07:51:38;;;;;;;4.13;3.73;;;12.50;1.00;;;;;;5001350;28;20499;-79
2023/05/08 07:54:05;;;;;;;4.50;4.10;;;12.60;1.00;;;;;;4997834;28;20482;-79
2023/05/08 07:56:36;;;;;;;5.50;4.20;;;12.80;1.00;;;;;;5002015;28;20474;-79
2023/05/08 07:59:03;;;;;;;4.20;3.80;;;12.90;1.00;;;;;;4996093;28;20424;-80
2023/05/08 08:01:30;;;;;;;4.20;3.80;;;12.90;1.00;;;;;;4999130;28;20499;-79
2023/05/08 08:03:57;;;;;;;5.20;3.87;;;13.00;1.00;;;;;;5003229;28;20496;-81
2023/05/08 08:06:24;;;;;;;4.70;4.10;;;13.10;1.00;;;;;;5004259;28;20467;-79
2023/05/08 08:08:51;;;;;;;6.70;3.63;;;13.20;1.00;;;;;;5002396;28;20441;-79
2023/05/08 08:11:29;;;;;;;4.80;3.70;;;13.50;1.00;;;;;;4998943;28;20560;-79
2023/05/08 08:13:58;;;;;;;4.20;3.83;;;13.60;1.00;;;;;;5004840;28;21064;-80
2023/05/08 08:16:25;;;;;;;5.30;3.97;;;13.70;1.00;;;;;;5000045;28;20555;-78
2023/05/08 08:18:52;;;;;;;5.80;5.30;;;13.50;1.00;;;;;;5003151;28;20522;-78
2023/05/08 08:21:19;;;;;;;6.40;3.47;;;13.70;1.00;;;;;;5001804;28;20970;-78
2023/05/08 08:23:46;;;;;;;4.30;3.90;;;14.00;1.00;;;;;;4999519;28;20907;-79
2023/05/08 08:26:13;;;;;;;5.20;3.73;;;14.30;1.00;;;;;;5008033;28;20482;-78
2023/05/08 08:28:40;;;;;;;4.27;3.63;;;14.30;1.00;;;;;;5000418;28;20524;-80
2023/05/08 08:31:09;;;;;;;8.63;4.30;;;14.10;1.00;;;;;;5002612;28;20473;-78
2023/05/08 08:33:36;;;;;;;4.30;3.90;;;14.20;1.00;;;;;;5000263;28;22933;-79
2023/05/08 08:36:03;;;;;;;4.07;3.67;;;14.10;1.00;;;;;;4996803;28;20690;-80
2023/05/08 08:38:30;;;;;;;3.33;3.03;;;14.00;1.00;;;;;;5001610;28;20461;-78
2023/05/08 08:40:57;;;;;;;3.83;3.40;;;14.20;1.00;;;;;;4999560;28;20441;-79
2023/05/08 08:43:25;;;;;;;4.63;3.10;;;14.30;1.00;;;;;;5006609;28;20492;-79
2023/05/08 08:45:52;;;;;;;3.63;3.33;;;14.40;1.00;;;;;;5000712;28;20465;-78
2023/05/08 08:48:24;;;;;;;3.13;2.80;;;14.50;1.00;;;;;;4998544;28;20558;-78
2023/05/08 08:50:58;;;;;;;6.07;3.30;;;14.40;1.00;;;;;;5000729;28;20466;-79
2023/05/08 08:53:31;;;;;;;3.20;2.90;;;14.40;1.00;;;;;;4992805;28;20536;-78
2023/05/08 08:56:01;;;;;;;4.97;3.37;;;14.60;1.00;;;;;;5000712;28;21079;-78
2023/05/08 08:58:33;;;;;;;4.00;3.60;;;14.80;1.00;;;;;;5000293;28;20504;-77
2023/05/08 09:01:02;;;;;;;3.40;3.20;;;15.00;1.00;;;;;;5001630;28;20417;-80
2023/05/08 09:03:31;;;;;;;2.97;2.67;;;15.10;1.00;;;;;;5003002;28;20463;-79
2023/05/08 09:06:00;;;;;;;4.27;3.20;;;15.20;1.00;;;;;;4995501;28;20615;-80
2023/05/08 09:08:27;;;;;;;4.20;3.10;;;15.20;1.00;;;;;;5008978;28;20438;-79
2023/05/08 09:10:55;;;;;;;4.93;3.33;;;15.10;1.00;;;;;;4995568;28;20466;-80
2023/05/08 09:13:22;;;;;;;3.00;2.70;;;15.30;1.00;;;;;;5001214;28;20470;-80
2023/05/08 09:15:51;;;;;;;9.00;3.50;;;15.50;1.00;;;;;;4996684;28;21087;-80
2023/05/08 09:18:18;;;;;;;2.93;2.73;;;15.60;1.00;;;;;;5003132;28;20484;-80
2023/05/08 09:20:48;;;;;;;3.20;2.90;;;16.00;1.00;;;;;;5001827;28;20489;-78
2023/05/08 09:23:16;;;;;;;3.43;3.13;;;16.40;1.00;;;;;;5002601;28;20462;-79
2023/05/08 09:25:43;;;;;;;3.30;3.00;;;17.00;1.00;;;;;;4993108;28;20482;-78
2023/05/08 09:28:17;;;;;;;8.63;3.73;;;17.90;1.00;;;;;;4994588;28;20468;-79
2023/05/08 09:30:52;;;;;;;4.87;3.77;;;18.70;1.00;;;;;;4991268;28;21590;-80
2023/05/08 09:33:20;;;;;;;4.40;3.53;;;19.50;1.00;;;;;;4992301;28;20521;-80
2023/05/08 09:35:48;;;;;;;3.83;2.83;;;20.50;1.00;;;;;;4992379;28;20549;-80
2023/05/08 09:38:36;;;;;;;3.00;2.80;;;21.10;1.00;;;;;;4994285;28;20470;-80
2023/05/08 09:41:08;;;;;;;3.67;3.37;;;22.10;1.00;;;;;;4989068;28;20522;-80
2023/05/08 09:43:35;;;;;;;6.20;2.80;;;22.60;1.00;;;;;;4990811;28;20461;-79
2023/05/08 09:46:22;;;;;;;3.17;2.83;;;23.40;1.00;;;;;;4998291;28;20574;-83
2023/05/08 09:48:49;;;;;;;3.03;2.73;;;23.40;1.00;;;;;;5001946;28;20510;-84
2023/05/08 09:51:17;;;;;;;2.93;2.63;;;24.20;1.00;;;;;;4998318;28;21256;-84
2023/05/08 09:53:45;;;;;;;2.90;2.70;;;24.30;1.00;;;;;;4997393;28;20474;-83
2023/05/08 09:56:12;;;;;;;3.20;2.83;;;24.20;1.00;;;;;;4996386;28;20481;-83
2023/05/08 09:58:40;;;;;;;3.00;2.80;;;23.60;1.00;;;;;;5002198;28;20520;-84
2023/05/08 10:01:27;;;;;;;3.23;2.93;;;23.50;1.00;;;;;;4998795;28;20465;-84
2023/05/08 10:03:54;;;;;;;4.80;3.57;;;23.70;1.00;;;;;;5001705;28;20405;-82
2023/05/08 10:06:22;;;;;;;5.30;2.63;;;23.60;1.00;;;;;;4999858;28;20971;-82
2023/05/08 10:08:49;;;;;;;4.83;2.73;;;24.00;1.00;;;;;;4993814;28;20862;-82
2023/05/08 10:11:17;;;;;;;3.10;2.80;;;24.60;1.00;;;;;;4990128;28;21067;-82
2023/05/08 10:17:39;;;;;;;3.37;2.93;;;24.50;1.00;;;;;;5006571;28;20557;-83
2023/05/08 10:20:08;;;;;;;4.63;2.57;;;24.50;1.00;;;;;;5007541;28;20462;-83
2023/05/08 10:22:41;;;;;;;3.53;2.70;;;24.50;1.00;;;;;;5004577;28;21346;-82
2023/05/08 10:25:12;;;;;;;3.70;2.73;;;24.40;1.00;;;;;;5001368;28;20469;-80
2023/05/08 10:27:44;;;;;;;8.87;7.50;;;25.30;1.00;;;;;;5003637;28;20516;-81
2023/05/08 10:30:17;;;;;;;3.13;2.90;;;25.20;1.00;;;;;;4997334;28;20481;-81
2023/05/08 10:32:45;;;;;;;4.03;2.40;;;25.70;1.00;;;;;;5002020;28;20600;-84
2023/05/08 10:35:12;;;;;;;3.73;2.67;;;25.40;1.00;;;;;;5005645;28;20479;-83
2023/05/08 10:37:42;;;;;;;3.10;2.90;;;25.90;1.00;;;;;;5007562;28;20879;-84
2023/05/08 10:40:10;;;;;;;2.93;2.63;;;25.60;1.00;;;;;;5008312;28;20464;-84
2023/05/08 10:42:38;;;;;;;2.67;2.47;;;25.10;1.00;;;;;;4993355;28;20647;-83
2023/05/08 10:45:09;;;;;;;3.30;2.80;;;25.10;1.00;;;;;;5008264;28;20488;-83
2023/05/08 10:47:51;;;;;;;2.67;2.43;;;25.80;1.00;;;;;;5011502;28;20474;-83
2023/05/08 10:50:34;;;;;;;2.80;2.60;;;26.30;1.00;;;;;;5007715;28;20612;-82
2023/05/08 10:53:10;;;;;;;4.27;2.30;;;26.40;1.00;;;;;;5011893;28;20419;-86
2023/05/08 10:55:40;;;;;;;3.00;2.60;;;27.10;1.00;;;;;;4996786;28;20997;-85
2023/05/08 10:58:11;;;;;;;4.60;3.00;;;26.70;1.00;;;;;;5008184;28;20523;-85
2023/05/08 11:01:16;;;;;;;2.83;2.60;;;26.70;1.00;;;;;;5002248;28;20461;-79
2023/05/08 11:03:51;;;;;;;3.10;2.37;;;28.20;1.00;;;;;;4997479;28;20465;-79
2023/05/08 11:06:38;;;;;;;3.03;2.30;;;27.90;1.00;;;;;;4998246;28;21825;-80
2023/05/08 11:09:07;;;;;;;2.70;2.50;;;27.60;1.00;;;;;;4998407;28;20565;-81
2023/05/08 11:11:39;;;;;;;3.20;2.40;;;26.80;1.00;;;;;;5001429;28;20467;-80
2023/05/08 11:14:15;;;;;;;3.97;2.60;;;26.40;1.00;;;;;;5000660;28;20468;-80
2023/05/08 11:17:05;;;;;;;2.30;2.07;;;28.00;1.00;;;;;;4995619;28;20574;-82
2023/05/08 11:19:32;;;;;;;2.93;2.20;;;28.90;1.00;;;;;;4995959;28;20475;-81
2023/05/08 11:22:13;;;;;;;3.63;2.30;;;29.30;1.00;;;;;;5000537;28;20945;-81
2023/05/08 11:24:48;;;;;;;2.40;2.20;;;29.30;1.00;;;;;;4998550;28;20478;-81
2023/05/08 11:27:17;;;;;;;3.00;2.20;;;28.90;1.00;;;;;;4994905;28;20528;-83
2023/05/08 11:29:44;;;;;;;3.70;2.30;;;28.10;1.00;;;;;;4999472;28;21384;-81
2023/05/08 11:32:11;;;;;;;3.00;2.10;;;28.60;1.00;;;;;;4991965;28;20929;-80
2023/05/08 11:34:49;;;;;;;3.63;2.80;;;28.40;1.00;;;;;;5005679;28;20494;-81
2023/05/08 11:37:20;;;;;;;2.50;2.30;;;29.00;1.00;;;;;;5006356;28;20558;-80
2023/05/08 11:39:51;;;;;;;3.97;2.53;;;29.20;1.00;;;;;;5001747;28;20525;-83
2023/05/08 11:42:33;;;;;;;4.30;2.67;;;29.70;1.00;;;;;;4997476;28;20474;-79
2023/05/08 11:45:05;;;;;;;3.73;2.70;;;30.20;1.00;;;;;;4988098;28;20446;-80
2023/05/08 11:47:37;;;;;;;3.30;2.40;;;30.70;1.00;;;;;;4999818;28;20471;-80
2023/05/08 11:50:08;;;;;;;2.47;2.27;;;30.90;1.00;;;;;;4997640;28;20595;-83
2023/05/08 11:52:39;;;;;;;4.90;4.23;;;30.20;1.00;;;;;;5000305;28;20461;-82
2023/05/08 11:55:10;;;;;;;2.80;2.60;;;29.70;1.00;;;;;;4994970;28;20608;-83
2023/05/08 11:57:37;;;;;;;2.37;2.17;;;30.50;1.00;;;;;;4997256;28;20490;-80
2023/05/08 12:00:05;;;;;;;5.07;2.63;;;29.30;1.00;;;;;;4996708;28;21594;-81
2023/05/08 12:02:38;;;;;;;6.10;3.00;;;28.50;1.00;;;;;;4994668;28;20490;-81
2023/05/08 12:05:07;;;;;;;2.33;2.13;;;28.70;1.00;;;;;;4990356;28;20498;-82
2023/05/08 12:07:45;;;;;;;2.67;2.40;;;28.90;1.00;;;;;;4986723;28;20954;-80
2023/05/08 12:10:13;;;;;;;2.30;2.03;;;29.50;1.00;;;;;;4996138;28;20474;-81
2023/05/08 12:12:41;;;;;;;5.23;2.50;;;29.80;1.00;;;;;;4996092;28;20950;-80
2023/05/08 12:15:09;;;;;;;2.80;2.30;;;30.20;1.00;;;;;;4991996;28;20931;-84
2023/05/08 12:17:37;;;;;;;4.50;2.63;;;30.40;1.00;;;;;;4992562;28;20463;-83
2023/05/08 12:20:13;;;;;;;3.40;2.40;;;30.70;1.00;;;;;;4998726;28;20474;-80
2023/05/08 12:22:40;;;;;;;3.20;2.70;;;31.60;1.00;;;;;;4992491;28;20470;-82
2023/05/08 12:25:09;;;;;;;2.73;2.47;;;31.40;1.00;;;;;;4995713;28;20549;-81
2023/05/08 12:27:38;;;;;;;4.47;2.90;;;31.30;1.00;;;;;;4995541;28;21103;-82
2023/05/08 12:30:16;;;;;;;5.33;2.30;;;30.30;1.00;;;;;;4989243;28;21147;-81
2023/05/08 12:32:44;;;;;;;4.80;2.30;;;30.50;1.00;;;;;;4994253;28;20451;-81
2023/05/08 12:35:12;;;;;;;4.00;2.10;;;30.20;1.00;;;;;;4979860;28;20467;-86
2023/05/08 12:37:40;;;;;;;3.63;2.40;;;30.80;1.00;;;;;;4992627;28;20498;-84
2023/05/08 12:40:22;;;;;;;6.63;6.00;;;31.10;1.00;;;;;;4997377;28;20545;-85
2023/05/08 12:42:51;;;;;;;3.97;2.40;;;31.20;1.00;;;;;;4992612;28;20490;-85
2023/05/08 12:45:19;;;;;;;5.23;2.30;;;30.70;1.00;;;;;;4993612;28;20956;-80
2023/05/08 12:47:47;;;;;;;4.30;2.50;;;30.20;1.00;;;;;;4993104;28;20423;-79
2023/05/08 12:50:21;;;;;;;2.33;2.00;;;30.90;1.00;;;;;;4978933;28;21124;-79
2023/05/08 12:52:48;;;;;;;2.90;2.37;;;30.30;1.00;;;;;;5001943;28;21370;-80
2023/05/08 12:55:25;;;;;;;2.17;1.93;;;30.80;1.00;;;;;;4999081;28;21147;-80
2023/05/08 12:58:01;;;;;;;1.90;1.70;;;30.40;1.00;;;;;;4997009;28;20470;-81
2023/05/08 13:00:39;;;;;;;2.70;2.37;;;29.50;1.00;;;;;;4994777;28;21151;-79
2023/05/08 13:03:08;;;;;;;3.07;2.60;;;30.00;1.00;;;;;;4987193;28;20519;-80
2023/05/08 13:05:38;;;;;;;3.80;2.47;;;30.70;1.00;;;;;;5001105;28;20546;-79
2023/05/08 13:08:08;;;;;;;6.27;3.00;;;30.50;1.00;;;;;;4997737;28;20459;-80
2023/05/08 13:10:46;;;;;;;3.40;2.73;;;30.70;1.00;;;;;;4998545;28;20559;-77
2023/05/08 13:13:15;;;;;;;4.03;2.30;;;31.00;1.00;;;;;;4998527;28;20494;-78
2023/05/08 13:15:43;;;;;;;5.50;2.30;;;31.00;1.00;;;;;;4982245;28;20474;-79
2023/05/08 13:18:10;;;;;;;2.30;1.97;;;31.80;1.00;;;;;;5000016;28;20458;-79